createdAt,value
2023-03-19T00:00:31.436Z,10.15
2023-03-19T00:02:59.122Z,10.60
2023-03-19T00:05:26.654Z,11.73
2023-03-19T00:07:59.692Z,11.05
2023-03-19T00:10:27.877Z,11.02
2023-03-19T00:12:55.139Z,12.15
2023-03-19T00:15:22.532Z,10.55
2023-03-19T00:17:50.026Z,11.30
2023-03-19T00:20:18.417Z,10.68
2023-03-19T00:22:45.887Z,10.80
2023-03-19T00:25:13.121Z,9.73
2023-03-19T00:27:40.690Z,9.57
2023-03-19T00:30:11.526Z,10.07
2023-03-19T00:32:39.725Z,9.07
2023-03-19T00:35:08.900Z,10.15
2023-03-19T00:37:37.590Z,10.55
2023-03-19T00:40:06.034Z,10.23
2023-03-19T00:42:34.671Z,11.40
2023-03-19T00:45:02.044Z,10.23
2023-03-19T00:47:30.986Z,9.43
2023-03-19T00:49:58.380Z,9.07
2023-03-19T00:52:25.836Z,10.15
2023-03-19T00:54:53.100Z,9.48
2023-03-19T00:57:20.798Z,9.73
2023-03-19T00:59:48.274Z,9.93
2023-03-19T01:02:15.865Z,9.77
2023-03-19T01:04:43.901Z,9.30
2023-03-19T01:07:11.568Z,10.75
2023-03-19T01:09:39.665Z,10.50
2023-03-19T01:12:07.886Z,9.27
2023-03-19T01:14:35.199Z,9.00
2023-03-19T01:17:02.542Z,10.15
2023-03-19T01:19:30.445Z,10.45
2023-03-19T01:21:57.966Z,10.40
2023-03-19T01:24:30.371Z,10.75
2023-03-19T01:29:36.458Z,9.95
2023-03-19T01:32:14.931Z,10.00
2023-03-19T01:35:06.734Z,8.93
2023-03-19T01:37:34.092Z,10.48
2023-03-19T01:40:01.652Z,9.80
2023-03-19T01:42:30.861Z,9.82
2023-03-19T01:48:41.048Z,10.43
2023-03-19T01:51:16.362Z,10.15
2023-03-19T01:53:56.263Z,10.60
2023-03-19T01:56:36.500Z,9.15
2023-03-19T01:59:29.077Z,9.65
2023-03-19T02:02:31.550Z,10.00
2023-03-19T02:05:08.208Z,10.35
2023-03-19T02:07:37.424Z,9.77
2023-03-19T02:10:12.140Z,10.48
2023-03-19T02:12:39.969Z,9.20
2023-03-19T02:15:07.830Z,9.32
2023-03-19T02:17:35.467Z,8.93
2023-03-19T02:20:22.991Z,9.05
2023-03-19T02:23:04.174Z,10.48
2023-03-19T02:25:44.998Z,11.18
2023-03-19T02:28:16.433Z,9.27
2023-03-19T02:30:45.352Z,8.25
2023-03-19T02:33:18.661Z,8.75
2023-03-19T02:35:49.396Z,8.63
2023-03-19T02:38:22.443Z,9.52
2023-03-19T02:40:56.798Z,8.52
2023-03-19T02:43:24.322Z,9.02
2023-03-19T02:45:52.296Z,8.13
2023-03-19T02:48:19.859Z,8.40
2023-03-19T02:50:47.139Z,9.45
2023-03-19T02:53:16.013Z,8.50
2023-03-19T02:55:43.437Z,8.10
2023-03-19T02:58:11.307Z,8.10
2023-03-19T03:00:38.983Z,8.60
2023-03-19T03:03:07.764Z,8.90
2023-03-19T03:05:35.844Z,8.95
2023-03-19T03:08:04.836Z,9.00
2023-03-19T03:10:33.834Z,9.15
2023-03-19T03:13:01.699Z,9.10
2023-03-19T03:15:29.824Z,9.43
2023-03-19T03:17:57.670Z,9.77
2023-03-19T03:20:25.102Z,9.20
2023-03-19T03:22:53.798Z,9.68
2023-03-19T03:25:21.353Z,10.52
2023-03-19T03:27:48.848Z,10.60
2023-03-19T03:30:17.158Z,10.23
2023-03-19T03:32:44.547Z,9.55
2023-03-19T03:35:12.340Z,9.32
2023-03-19T03:37:39.946Z,10.15
2023-03-19T03:40:08.422Z,9.75
2023-03-19T03:42:37.588Z,9.57
2023-03-19T03:45:09.697Z,10.10
2023-03-19T03:47:37.852Z,10.13
2023-03-19T03:50:05.633Z,10.65
2023-03-19T03:52:34.303Z,10.27
2023-03-19T03:55:02.196Z,10.80
2023-03-19T03:57:30.047Z,9.63
2023-03-19T03:59:57.451Z,10.43
2023-03-19T04:02:25.330Z,10.40
2023-03-19T04:04:52.779Z,10.40
2023-03-19T04:07:20.870Z,10.65
2023-03-19T04:09:54.211Z,10.20
2023-03-19T04:12:21.897Z,9.30
2023-03-19T04:14:49.555Z,10.05
2023-03-19T04:17:17.124Z,9.98
2023-03-19T04:19:44.573Z,10.60
2023-03-19T04:22:11.871Z,10.55
2023-03-19T04:24:39.256Z,10.00
2023-03-19T04:27:08.442Z,10.50
2023-03-19T04:29:37.666Z,11.27
2023-03-19T04:32:05.531Z,10.75
2023-03-19T04:34:32.815Z,10.43
2023-03-19T04:37:00.165Z,10.52
2023-03-19T04:39:28.163Z,10.93
2023-03-19T04:41:55.754Z,10.63
2023-03-19T04:44:27.159Z,11.45
2023-03-19T04:46:55.072Z,10.52
2023-03-19T04:49:24.605Z,11.38
2023-03-19T04:51:52.541Z,11.00
2023-03-19T04:54:20.732Z,10.98
2023-03-19T04:56:48.252Z,10.82
2023-03-19T04:59:15.568Z,11.32
2023-03-19T05:01:43.631Z,11.13
2023-03-19T05:04:12.738Z,10.93
2023-03-19T05:06:40.105Z,11.23
2023-03-19T05:09:07.843Z,11.00
2023-03-19T05:11:35.211Z,11.05
2023-03-19T05:14:05.770Z,10.70
2023-03-19T05:16:59.193Z,10.95
2023-03-19T05:19:30.850Z,10.88
2023-03-19T05:21:58.332Z,11.18
2023-03-19T05:24:26.873Z,11.35
2023-03-19T05:26:56.317Z,11.40
2023-03-19T05:29:29.514Z,10.48
2023-03-19T05:32:16.071Z,10.52
2023-03-19T05:34:43.743Z,12.02
2023-03-19T05:37:11.532Z,10.43
2023-03-19T05:39:39.120Z,10.30
2023-03-19T05:42:09.338Z,10.98
2023-03-19T05:44:37.724Z,10.27
2023-03-19T05:47:17.736Z,10.45
2023-03-19T05:49:50.836Z,10.25
2023-03-19T05:52:19.431Z,11.13
2023-03-19T05:54:49.559Z,9.85
2023-03-19T05:57:37.325Z,9.48
2023-03-19T06:00:11.088Z,9.95
2023-03-19T06:02:38.685Z,10.68
2023-03-19T06:05:22.202Z,10.30
2023-03-19T06:07:52.000Z,10.88
2023-03-19T06:10:29.514Z,10.30
2023-03-19T06:12:59.335Z,10.50
2023-03-19T06:15:39.053Z,10.55
2023-03-19T06:18:23.938Z,10.65
2023-03-19T06:20:51.611Z,10.05
2023-03-19T06:23:19.296Z,10.30
2023-03-19T06:25:47.155Z,10.57
2023-03-19T06:28:15.039Z,9.63
2023-03-19T06:30:44.731Z,10.10
2023-03-19T06:33:32.446Z,10.63
2023-03-19T06:36:00.416Z,10.00
2023-03-19T06:38:29.417Z,9.82
2023-03-19T06:40:56.674Z,10.52
2023-03-19T06:43:23.937Z,8.25
2023-03-19T06:45:51.408Z,10.00
2023-03-19T06:48:18.960Z,9.18
2023-03-19T06:50:47.046Z,9.52
2023-03-19T06:53:15.070Z,9.98
2023-03-19T06:55:42.578Z,9.27
2023-03-19T06:58:09.788Z,9.07
2023-03-19T07:00:37.249Z,9.63
2023-03-19T07:03:04.852Z,10.35
2023-03-19T07:05:32.099Z,8.45
2023-03-19T07:07:59.705Z,8.80
2023-03-19T07:10:27.196Z,8.43
2023-03-19T07:12:54.466Z,7.50
2023-03-19T07:15:21.844Z,8.88
2023-03-19T07:17:49.862Z,7.43
2023-03-19T07:20:17.430Z,7.00
2023-03-19T07:22:44.754Z,8.43
2023-03-19T07:25:12.072Z,8.07
2023-03-19T07:27:39.448Z,8.50
2023-03-19T07:30:07.561Z,7.75
2023-03-19T07:32:34.911Z,7.55
2023-03-19T07:35:02.586Z,7.80
2023-03-19T07:37:29.828Z,6.68
2023-03-19T07:39:57.244Z,6.47
2023-03-19T07:42:24.852Z,7.05
2023-03-19T07:44:52.121Z,7.20
2023-03-19T07:47:28.528Z,7.10
2023-03-19T07:49:57.319Z,6.45
2023-03-19T07:52:26.055Z,6.43
2023-03-19T07:54:53.468Z,8.02
2023-03-19T07:57:21.102Z,8.57
2023-03-19T07:59:48.408Z,9.05
2023-03-19T08:02:17.197Z,9.30
2023-03-19T08:04:44.552Z,11.18
2023-03-19T08:07:12.873Z,9.23
2023-03-19T08:09:41.229Z,9.77
2023-03-19T08:12:08.957Z,9.00
2023-03-19T08:14:36.591Z,8.52
2023-03-19T08:17:03.889Z,8.55
2023-03-19T08:19:31.970Z,8.77
2023-03-19T08:21:59.317Z,8.80
2023-03-19T08:24:26.688Z,7.38
2023-03-19T08:26:54.069Z,7.63
2023-03-19T08:29:21.816Z,7.43
2023-03-19T08:31:49.142Z,6.90
2023-03-19T08:34:16.459Z,7.00
2023-03-19T08:36:43.777Z,5.80
2023-03-19T08:39:10.967Z,6.00
2023-03-19T08:41:38.374Z,5.50
2023-03-19T08:44:05.756Z,5.05
2023-03-19T08:46:33.787Z,4.95
2023-03-19T08:49:01.238Z,4.20
2023-03-19T08:51:31.143Z,4.13
2023-03-19T08:53:58.470Z,5.43
2023-03-19T08:56:25.766Z,4.10
2023-03-19T08:58:52.972Z,4.53
2023-03-19T09:01:20.272Z,3.70
2023-03-19T09:03:47.684Z,3.58
2023-03-19T09:06:14.957Z,3.80
2023-03-19T09:08:42.402Z,2.95
2023-03-19T09:11:11.086Z,3.20
2023-03-19T09:13:38.390Z,4.85
2023-03-19T09:16:06.714Z,3.42
2023-03-19T09:18:34.934Z,4.10
2023-03-19T09:21:02.538Z,3.97
2023-03-19T09:23:29.820Z,3.60
2023-03-19T09:25:57.275Z,3.65
2023-03-19T09:28:24.928Z,3.47
2023-03-19T09:30:52.369Z,3.83
2023-03-19T09:33:21.422Z,3.08
2023-03-19T09:35:53.865Z,3.20
2023-03-19T09:38:23.108Z,3.22
2023-03-19T09:41:21.577Z,3.30
2023-03-19T09:43:57.815Z,3.28
2023-03-19T09:46:44.583Z,3.05
2023-03-19T09:49:35.846Z,3.10
2023-03-19T09:52:20.520Z,2.10
2023-03-19T09:54:52.988Z,2.55
2023-03-19T09:57:20.372Z,2.75
2023-03-19T09:59:48.458Z,2.28
2023-03-19T10:02:37.966Z,2.80
2023-03-19T10:05:15.797Z,2.72
2023-03-19T10:08:13.134Z,2.90
2023-03-19T10:11:08.535Z,3.30
2023-03-19T10:14:21.352Z,3.53
2023-03-19T10:16:52.191Z,3.78
2023-03-19T10:19:24.502Z,3.78
2023-03-19T10:22:19.365Z,3.65
2023-03-19T10:24:48.470Z,4.10
2023-03-19T10:27:18.608Z,4.30
2023-03-19T10:29:46.471Z,5.00
2023-03-19T10:32:42.278Z,4.15
2023-03-19T10:35:43.733Z,4.38
2023-03-19T10:38:25.528Z,4.80
2023-03-19T10:41:22.038Z,5.70
2023-03-19T10:44:00.171Z,4.95
2023-03-19T10:46:27.704Z,6.65
2023-03-19T10:48:55.036Z,7.35
2023-03-19T10:51:27.142Z,8.05
2023-03-19T10:53:56.960Z,7.05
2023-03-19T10:56:30.390Z,7.32
2023-03-19T10:59:07.460Z,7.70
2023-03-19T11:01:42.117Z,7.90
2023-03-19T11:04:17.383Z,7.28
2023-03-19T11:06:53.525Z,6.30
2023-03-19T11:09:35.020Z,6.60
2023-03-19T11:12:19.442Z,5.68
2023-03-19T11:14:50.208Z,5.40
2023-03-19T11:17:28.036Z,5.90
2023-03-19T11:19:57.810Z,5.03
2023-03-19T11:22:37.782Z,4.40
2023-03-19T11:25:20.455Z,4.22
2023-03-19T11:28:03.719Z,4.88
2023-03-19T11:30:49.572Z,4.75
2023-03-19T11:33:47.933Z,4.50
2023-03-19T11:36:48.370Z,3.78
2023-03-19T11:39:22.341Z,5.05
2023-03-19T11:41:58.518Z,4.70
2023-03-19T11:44:52.166Z,6.50
2023-03-19T11:47:36.227Z,5.38
2023-03-19T11:50:20.641Z,10.48
2023-03-19T11:52:57.174Z,6.25
2023-03-19T11:55:46.166Z,6.72
2023-03-19T11:58:44.240Z,5.80
2023-03-19T12:01:25.516Z,4.60
2023-03-19T12:04:03.980Z,4.20
2023-03-19T12:06:35.029Z,4.30
2023-03-19T12:09:04.592Z,4.53
2023-03-19T12:11:55.434Z,4.60
2023-03-19T12:14:53.166Z,4.82
2023-03-19T12:17:45.922Z,4.15
2023-03-19T12:20:38.451Z,4.85
2023-03-19T12:23:57.100Z,4.95
2023-03-19T12:26:31.334Z,5.80
2023-03-19T12:29:04.675Z,5.53
2023-03-19T12:31:37.852Z,5.85
2023-03-19T12:34:16.968Z,5.07
2023-03-19T12:37:11.831Z,5.32
2023-03-19T12:39:45.652Z,5.28
2023-03-19T12:42:18.958Z,6.13
2023-03-19T12:44:55.370Z,5.60
2023-03-19T12:47:31.449Z,5.70
2023-03-19T12:50:09.747Z,5.95
2023-03-19T12:52:39.500Z,5.18
2023-03-19T12:55:12.599Z,5.30
2023-03-19T12:57:51.518Z,6.35
2023-03-19T13:00:28.738Z,4.80
2023-03-19T13:03:07.217Z,4.78
2023-03-19T13:05:44.897Z,5.25
2023-03-19T13:08:34.301Z,4.40
2023-03-19T13:11:08.791Z,4.40
2023-03-19T13:13:39.065Z,4.40
2023-03-19T13:16:31.112Z,4.57
2023-03-19T13:19:21.847Z,4.80
2023-03-19T13:21:52.976Z,4.82
2023-03-19T13:24:21.272Z,4.53
2023-03-19T13:26:50.384Z,5.13
2023-03-19T13:29:30.425Z,4.70
2023-03-19T13:32:22.649Z,4.57
2023-03-19T13:34:49.991Z,4.88
2023-03-19T13:37:20.876Z,4.38
2023-03-19T13:39:49.697Z,3.95
2023-03-19T13:42:55.836Z,3.92
2023-03-19T13:45:36.442Z,3.70
2023-03-19T13:48:25.015Z,4.40
2023-03-19T13:51:25.342Z,4.20
2023-03-19T13:54:23.627Z,4.20
2023-03-19T13:57:04.450Z,4.75
2023-03-19T13:59:34.764Z,3.90
2023-03-19T14:02:21.966Z,4.28
2023-03-19T14:04:57.300Z,5.10
2023-03-19T14:07:28.349Z,4.72
2023-03-19T14:10:00.017Z,5.13
2023-03-19T14:12:42.020Z,4.90
2023-03-19T14:15:09.470Z,4.60
2023-03-19T14:17:48.929Z,4.63
2023-03-19T14:20:19.891Z,5.03
2023-03-19T14:23:10.769Z,4.00
2023-03-19T14:25:57.141Z,4.43
2023-03-19T14:28:43.289Z,4.15
2023-03-19T14:31:33.948Z,4.47
2023-03-19T14:34:22.472Z,4.00
2023-03-19T14:36:54.942Z,3.88
2023-03-19T14:39:28.396Z,4.10
2023-03-19T14:42:07.212Z,3.80
2023-03-19T14:45:05.995Z,4.13
2023-03-19T14:47:56.303Z,4.05
2023-03-19T14:50:50.470Z,8.23
2023-03-19T14:53:32.731Z,5.95
2023-03-19T14:56:11.914Z,4.10
2023-03-19T14:58:51.429Z,4.28
2023-03-19T15:01:20.645Z,4.50
2023-03-19T15:03:55.123Z,4.43
2023-03-19T15:06:23.215Z,4.10
2023-03-19T15:08:50.959Z,5.78
2023-03-19T15:11:28.566Z,3.80
2023-03-19T15:14:17.233Z,4.40
2023-03-19T15:17:13.704Z,4.60
2023-03-19T15:19:41.525Z,4.20
2023-03-19T15:22:26.420Z,4.43
2023-03-19T15:24:53.767Z,4.50
2023-03-19T15:27:26.238Z,5.80
2023-03-19T15:29:54.206Z,4.82
2023-03-19T15:32:51.756Z,9.88
2023-03-19T15:35:19.776Z,8.55
2023-03-19T15:37:52.136Z,5.07
2023-03-19T15:40:22.516Z,4.50
2023-03-19T15:42:52.516Z,4.57
2023-03-19T15:45:24.532Z,3.88
2023-03-19T15:48:14.997Z,4.57
2023-03-19T15:50:45.545Z,4.63
2023-03-19T15:53:17.478Z,4.50
2023-03-19T15:55:48.341Z,3.92
2023-03-19T15:58:28.910Z,4.15
2023-03-19T16:00:59.521Z,4.97
2023-03-19T16:03:41.742Z,4.72
2023-03-19T16:06:22.012Z,5.15
2023-03-19T16:08:53.560Z,4.65
2023-03-19T16:11:44.736Z,4.75
2023-03-19T16:14:17.223Z,4.45
2023-03-19T16:16:51.985Z,4.68
2023-03-19T16:19:48.017Z,5.32
2023-03-19T16:22:24.572Z,5.95
2023-03-19T16:24:54.036Z,5.00
2023-03-19T16:27:38.873Z,5.07
2023-03-19T16:30:24.973Z,6.45
2023-03-19T16:33:03.926Z,6.25
2023-03-19T16:35:39.023Z,6.22
2023-03-19T16:38:14.260Z,4.50
2023-03-19T16:40:47.265Z,4.47
2023-03-19T16:43:18.581Z,5.30
2023-03-19T16:46:04.409Z,5.10
2023-03-19T16:48:32.456Z,4.88
2023-03-19T16:51:00.678Z,5.20
2023-03-19T16:53:32.223Z,5.38
2023-03-19T16:56:01.798Z,5.50
2023-03-19T16:58:38.258Z,5.10
2023-03-19T17:01:32.514Z,5.32
2023-03-19T17:04:00.473Z,5.95
2023-03-19T17:06:31.693Z,6.05
2023-03-19T17:08:59.256Z,5.43
2023-03-19T17:11:34.813Z,5.57
2023-03-19T17:14:03.537Z,5.10
2023-03-19T17:16:31.475Z,5.90
2023-03-19T17:18:59.622Z,5.90
2023-03-19T17:21:30.922Z,5.78
2023-03-19T17:23:59.729Z,5.97
2023-03-19T17:26:28.926Z,6.45
2023-03-19T17:28:59.097Z,6.45
2023-03-19T17:31:31.813Z,6.30
2023-03-19T17:34:06.073Z,5.78
2023-03-19T17:36:34.024Z,6.90
2023-03-19T17:39:01.885Z,5.70
2023-03-19T17:41:30.526Z,5.78
2023-03-19T17:43:58.097Z,6.68
2023-03-19T17:46:28.444Z,6.72
2023-03-19T17:48:56.322Z,6.78
2023-03-19T17:51:24.659Z,6.90
2023-03-19T17:53:54.611Z,6.07
2023-03-19T17:56:27.759Z,6.75
2023-03-19T17:58:55.331Z,6.15
2023-03-19T18:01:26.388Z,5.75
2023-03-19T18:03:55.587Z,6.20
2023-03-19T18:06:26.366Z,7.22
2023-03-19T18:08:53.813Z,8.13
2023-03-19T18:11:21.267Z,8.00
2023-03-19T18:13:49.466Z,6.65
2023-03-19T18:16:29.020Z,6.32
2023-03-19T18:19:04.647Z,5.00
2023-03-19T18:21:32.496Z,4.57
2023-03-19T18:24:01.650Z,4.10
2023-03-19T18:26:29.030Z,3.63
2023-03-19T18:28:56.596Z,3.50
2023-03-19T18:31:26.103Z,3.70
2023-03-19T18:34:14.164Z,3.05
2023-03-19T18:36:42.488Z,3.30
2023-03-19T18:39:15.596Z,3.65
2023-03-19T18:41:44.466Z,3.35
2023-03-19T18:44:12.505Z,3.15
2023-03-19T18:46:41.080Z,3.22
2023-03-19T18:49:11.570Z,2.90
2023-03-19T18:51:45.505Z,2.90
2023-03-19T18:54:22.512Z,3.20
2023-03-19T18:56:50.937Z,3.25
2023-03-19T18:59:23.754Z,3.58
2023-03-19T19:01:56.866Z,3.20
2023-03-19T19:04:26.292Z,3.53
2023-03-19T19:06:55.978Z,2.95
2023-03-19T19:09:23.851Z,3.17
2023-03-19T19:11:51.222Z,4.53
2023-03-19T19:14:24.315Z,3.28
2023-03-19T19:16:54.003Z,3.60
2023-03-19T19:19:24.232Z,3.10
2023-03-19T19:21:53.079Z,3.00
2023-03-19T19:24:21.311Z,5.85
2023-03-19T19:26:54.024Z,4.90
2023-03-19T19:29:27.313Z,3.47
2023-03-19T19:31:55.448Z,3.80
2023-03-19T19:34:23.627Z,3.65
2023-03-19T19:36:51.309Z,4.10
2023-03-19T19:39:19.091Z,4.07
2023-03-19T19:41:46.780Z,3.70
2023-03-19T19:44:19.147Z,5.38
2023-03-19T19:46:46.483Z,5.53
2023-03-19T19:49:15.626Z,4.70
2023-03-19T19:51:43.497Z,5.38
2023-03-19T19:54:10.965Z,4.68
2023-03-19T19:56:39.286Z,6.18
2023-03-19T19:59:08.056Z,6.70
2023-03-19T20:01:35.910Z,6.80
2023-03-19T20:04:04.471Z,7.70
2023-03-19T20:06:33.539Z,5.85
2023-03-19T20:09:01.150Z,6.20
2023-03-19T20:11:31.071Z,6.47
2023-03-19T20:13:58.519Z,8.25
2023-03-19T20:16:26.935Z,7.05
2023-03-19T20:18:55.403Z,5.47
2023-03-19T20:21:23.221Z,7.05
2023-03-19T20:23:55.577Z,7.13
2023-03-19T20:26:24.937Z,6.97
2023-03-19T20:28:53.050Z,6.30
2023-03-19T20:31:29.904Z,6.32
2023-03-19T20:33:58.035Z,6.90
2023-03-19T20:36:26.822Z,7.63
2023-03-19T20:38:54.697Z,6.95
2023-03-19T20:41:24.462Z,10.07
2023-03-19T20:43:52.286Z,8.27
2023-03-19T20:46:21.603Z,8.85
2023-03-19T20:48:50.083Z,10.05
2023-03-19T20:51:20.151Z,9.73
2023-03-19T20:53:49.828Z,9.07
2023-03-19T20:56:21.284Z,9.32
2023-03-19T20:58:48.834Z,8.25
2023-03-19T21:01:17.995Z,8.13
2023-03-19T21:03:45.904Z,7.20
2023-03-19T21:06:18.323Z,6.40
2023-03-19T21:08:57.244Z,7.60
2023-03-19T21:11:39.414Z,6.40
2023-03-19T21:14:08.025Z,6.60
2023-03-19T21:16:36.543Z,5.70
2023-03-19T21:19:05.672Z,5.15
2023-03-19T21:21:36.272Z,7.05
2023-03-19T21:24:10.524Z,7.00
2023-03-19T21:26:39.841Z,6.57
2023-03-19T21:29:26.230Z,6.75
2023-03-19T21:31:55.586Z,6.20
2023-03-19T21:34:22.865Z,6.20
2023-03-19T21:36:50.191Z,5.43
2023-03-19T21:39:17.883Z,4.57
2023-03-19T21:41:46.416Z,6.65
2023-03-19T21:44:18.278Z,6.47
2023-03-19T21:46:47.099Z,5.15
2023-03-19T21:49:14.917Z,5.25
2023-03-19T21:51:45.309Z,6.20
2023-03-19T21:54:12.686Z,6.50
2023-03-19T21:56:45.195Z,6.10
2023-03-19T21:59:19.369Z,6.22
2023-03-19T22:01:47.545Z,5.47
2023-03-19T22:04:15.205Z,5.70
2023-03-19T22:06:43.282Z,5.63
2023-03-19T22:09:10.696Z,4.85
2023-03-19T22:11:39.293Z,5.13
2023-03-19T22:14:12.631Z,5.38
2023-03-19T22:16:40.228Z,5.15
2023-03-19T22:19:09.268Z,5.63
2023-03-19T22:21:36.533Z,6.00
2023-03-19T22:24:04.031Z,6.25
2023-03-19T22:26:34.153Z,6.70
2023-03-19T22:29:04.366Z,6.70
2023-03-19T22:31:32.528Z,6.60
2023-03-19T22:34:00.012Z,7.43
2023-03-19T22:36:27.469Z,5.50
2023-03-19T22:38:54.917Z,5.47
2023-03-19T22:41:32.472Z,5.47
2023-03-19T22:44:02.113Z,5.45
2023-03-19T22:46:29.531Z,6.10
2023-03-19T22:48:57.102Z,6.63
2023-03-19T22:51:27.479Z,6.97
2023-03-19T22:53:55.606Z,6.68
2023-03-19T22:56:23.431Z,6.70
2023-03-19T22:58:50.985Z,6.28
2023-03-19T23:01:21.411Z,7.28
2023-03-19T23:03:49.871Z,8.00
2023-03-19T23:06:30.496Z,9.00
2023-03-19T23:08:58.617Z,8.30
2023-03-19T23:11:25.866Z,8.55
2023-03-19T23:13:56.017Z,9.73
2023-03-19T23:16:25.244Z,8.85
2023-03-19T23:21:21.570Z,9.40
2023-03-19T23:23:49.829Z,9.70
2023-03-19T23:26:29.882Z,9.38
2023-03-19T23:29:03.664Z,10.30
2023-03-19T23:31:32.020Z,8.45
2023-03-19T23:33:59.226Z,9.15
2023-03-19T23:36:26.832Z,8.60
2023-03-19T23:38:54.002Z,8.95
2023-03-19T23:41:25.245Z,8.68
2023-03-19T23:43:53.518Z,10.00
2023-03-19T23:46:21.775Z,8.63
2023-03-19T23:48:49.165Z,7.88
2023-03-19T23:51:17.471Z,9.60
2023-03-19T23:53:45.333Z,7.85
2023-03-19T23:56:25.546Z,7.78
